createdAt,value
2022-08-16T00:00:57.940Z,13.65
2022-08-16T00:04:01.994Z,14.07
2022-08-16T00:07:09.588Z,14.43
2022-08-16T00:10:20.846Z,14.38
2022-08-16T00:13:25.536Z,14.35
2022-08-16T00:17:05.331Z,14.00
2022-08-16T00:19:57.259Z,14.93
2022-08-16T00:23:01.335Z,14.55
2022-08-16T00:26:35.309Z,14.25
2022-08-16T00:29:31.592Z,15.50
2022-08-16T00:32:38.806Z,14.85
2022-08-16T00:35:42.493Z,15.60
2022-08-16T00:38:46.671Z,13.77
2022-08-16T00:41:52.755Z,15.20
2022-08-16T00:45:08.051Z,15.15
2022-08-16T00:48:30.838Z,15.02
2022-08-16T00:51:35.480Z,15.57
2022-08-16T00:54:43.075Z,15.45
2022-08-16T00:58:00.176Z,15.13
2022-08-16T01:01:08.204Z,14.23
2022-08-16T01:04:29.272Z,14.30
2022-08-16T01:07:52.049Z,13.85
2022-08-16T01:10:59.987Z,14.63
2022-08-16T01:14:30.091Z,14.13
2022-08-16T01:17:36.946Z,15.10
2022-08-16T01:20:51.371Z,13.70
2022-08-16T01:24:51.723Z,12.95
2022-08-16T01:27:38.558Z,13.18
2022-08-16T01:30:49.886Z,14.05
2022-08-16T01:33:54.978Z,12.82
2022-08-16T01:37:09.061Z,12.15
2022-08-16T01:40:16.748Z,12.80
2022-08-16T01:43:22.010Z,13.57
2022-08-16T01:46:43.787Z,13.38
2022-08-16T01:50:41.907Z,13.32
2022-08-16T01:53:12.901Z,13.43
2022-08-16T01:56:24.332Z,12.75
2022-08-16T01:59:29.958Z,12.93
2022-08-16T02:02:34.054Z,13.68
2022-08-16T02:05:51.810Z,13.15
2022-08-16T02:08:56.204Z,13.35
2022-08-16T02:12:00.360Z,12.55
2022-08-16T02:15:27.205Z,12.73
2022-08-16T02:18:31.124Z,13.23
2022-08-16T02:21:37.832Z,13.35
2022-08-16T02:25:04.022Z,12.70
2022-08-16T02:28:08.595Z,12.60
2022-08-16T02:31:15.003Z,12.77
2022-08-16T02:34:20.574Z,13.10
2022-08-16T02:37:39.728Z,13.10
2022-08-16T02:40:57.347Z,12.88
2022-08-16T02:44:05.861Z,12.82
2022-08-16T02:47:10.152Z,12.32
2022-08-16T02:50:54.814Z,12.38
2022-08-16T02:53:44.684Z,12.88
2022-08-16T02:56:49.018Z,11.35
2022-08-16T02:59:53.823Z,11.88
2022-08-16T03:02:58.315Z,13.13
2022-08-16T03:06:03.461Z,13.07
2022-08-16T03:09:29.855Z,13.02
2022-08-16T03:12:37.993Z,12.77
2022-08-16T03:15:59.675Z,12.77
2022-08-16T03:19:04.978Z,12.82
2022-08-16T03:22:10.574Z,13.60
2022-08-16T03:25:16.126Z,12.13
2022-08-16T03:28:23.317Z,13.10
2022-08-16T03:31:34.875Z,12.63
2022-08-16T03:34:46.408Z,14.73
2022-08-16T03:38:01.551Z,13.10
2022-08-16T03:44:44.929Z,13.02
2022-08-16T03:47:58.266Z,12.45
2022-08-16T03:51:07.963Z,11.75
2022-08-16T03:54:12.990Z,12.48
2022-08-16T03:57:17.163Z,12.45
2022-08-16T04:00:35.725Z,11.52
2022-08-16T04:03:44.281Z,11.40
2022-08-16T04:06:48.543Z,11.65
2022-08-16T04:09:55.235Z,11.20
2022-08-16T04:13:04.431Z,10.38
2022-08-16T04:16:26.383Z,10.95
2022-08-16T04:19:32.775Z,10.60
2022-08-16T04:22:37.980Z,10.70
2022-08-16T04:25:47.010Z,11.13
2022-08-16T04:29:14.590Z,10.73
2022-08-16T04:32:16.180Z,10.30
2022-08-16T04:35:24.200Z,10.25
2022-08-16T04:38:28.400Z,10.35
2022-08-16T04:41:37.543Z,9.68
2022-08-16T04:44:54.169Z,10.35
2022-08-16T04:48:00.101Z,9.77
2022-08-16T04:51:07.947Z,9.80
2022-08-16T04:54:19.435Z,9.88
2022-08-16T04:57:23.729Z,9.45
2022-08-16T05:00:34.727Z,10.20
2022-08-16T05:03:41.856Z,10.40
2022-08-16T05:07:03.297Z,8.88
2022-08-16T05:10:20.102Z,8.65
2022-08-16T05:13:41.027Z,9.25
2022-08-16T05:16:45.999Z,8.77
2022-08-16T05:19:58.071Z,8.80
2022-08-16T05:23:02.461Z,8.23
2022-08-16T05:26:06.586Z,8.75
2022-08-16T05:29:24.989Z,8.18
2022-08-16T05:35:54.654Z,7.38
2022-08-16T05:38:59.730Z,7.95
2022-08-16T05:42:04.544Z,7.95
2022-08-16T05:45:09.335Z,7.45
2022-08-16T05:48:13.596Z,7.40
2022-08-16T05:51:37.715Z,7.35
2022-08-16T05:54:47.650Z,6.68
2022-08-16T05:58:03.039Z,6.63
2022-08-16T06:01:07.237Z,7.07
2022-08-16T06:04:36.093Z,7.15
2022-08-16T06:07:39.117Z,7.28
2022-08-16T06:11:02.622Z,6.28
2022-08-16T06:14:08.165Z,6.20
2022-08-16T06:17:12.333Z,6.07
2022-08-16T06:20:25.686Z,6.10
2022-08-16T06:23:39.996Z,5.47
2022-08-16T06:26:57.762Z,5.70
2022-08-16T06:30:03.190Z,5.40
2022-08-16T06:33:07.457Z,5.40
2022-08-16T06:36:17.209Z,4.93
2022-08-16T06:39:25.242Z,5.10
2022-08-16T06:42:47.268Z,5.45
2022-08-16T06:45:52.939Z,5.15
2022-08-16T06:48:57.248Z,4.90
2022-08-16T06:52:03.044Z,4.90
2022-08-16T06:55:13.039Z,4.90
2022-08-16T06:58:22.081Z,4.40
2022-08-16T07:01:43.245Z,4.45
2022-08-16T07:04:50.721Z,4.35
2022-08-16T07:07:57.047Z,4.20
2022-08-16T07:11:01.685Z,4.70
2022-08-16T07:14:26.348Z,4.47
2022-08-16T07:17:30.019Z,4.25
2022-08-16T07:20:47.039Z,4.30
2022-08-16T07:23:58.039Z,4.35
2022-08-16T07:27:12.525Z,4.47
2022-08-16T07:30:38.155Z,4.20
2022-08-16T07:33:52.107Z,4.25
2022-08-16T07:36:59.683Z,3.95
2022-08-16T07:40:11.318Z,4.22
2022-08-16T07:43:15.643Z,3.95
2022-08-16T07:46:37.495Z,4.30
2022-08-16T07:49:53.056Z,4.05
2022-08-16T07:53:02.745Z,4.40
2022-08-16T07:56:07.006Z,4.43
2022-08-16T07:59:10.843Z,4.00
2022-08-16T08:02:19.827Z,4.15
2022-08-16T08:05:35.770Z,3.55
2022-08-16T08:08:50.853Z,4.18
2022-08-16T08:11:59.946Z,4.45
2022-08-16T08:15:09.621Z,4.90
2022-08-16T08:18:30.294Z,4.70
2022-08-16T08:21:58.984Z,4.40
2022-08-16T08:25:03.730Z,4.47
2022-08-16T08:28:11.075Z,4.10
2022-08-16T08:31:17.195Z,4.65
2022-08-16T08:34:22.443Z,4.75
2022-08-16T08:37:27.580Z,4.40
2022-08-16T08:40:51.813Z,4.30
2022-08-16T08:43:57.044Z,4.05
2022-08-16T08:47:07.895Z,4.47
2022-08-16T08:50:31.902Z,4.47
2022-08-16T08:53:37.005Z,4.30
2022-08-16T08:56:45.781Z,4.15
2022-08-16T08:59:50.110Z,3.65
2022-08-16T09:02:58.064Z,3.90
2022-08-16T09:06:04.440Z,3.97
2022-08-16T09:09:16.483Z,3.60
2022-08-16T09:12:30.162Z,3.97
2022-08-16T09:15:41.016Z,3.85
2022-08-16T09:18:47.721Z,3.40
2022-08-16T09:21:59.432Z,3.80
2022-08-16T09:25:10.117Z,3.40
2022-08-16T09:31:42.097Z,3.17
2022-08-16T09:34:46.473Z,3.55
2022-08-16T09:38:00.941Z,3.30
2022-08-16T09:41:14.855Z,2.67
2022-08-16T09:45:10.684Z,3.22
2022-08-16T09:47:56.079Z,2.95
2022-08-16T09:51:01.963Z,2.67
2022-08-16T09:54:10.708Z,2.80
2022-08-16T09:57:21.274Z,2.75
2022-08-16T10:00:44.729Z,3.20
2022-08-16T10:04:01.861Z,2.77
2022-08-16T10:07:11.978Z,2.80
2022-08-16T10:10:30.603Z,2.57
2022-08-16T10:13:35.587Z,2.53
2022-08-16T10:16:39.718Z,2.70
2022-08-16T10:19:47.026Z,2.60
2022-08-16T10:23:02.119Z,2.80
2022-08-16T10:27:16.382Z,2.25
2022-08-16T10:30:00.262Z,2.58
2022-08-16T10:32:59.341Z,2.40
2022-08-16T10:36:07.573Z,2.38
2022-08-16T10:39:11.843Z,2.80
2022-08-16T10:42:17.348Z,2.30
2022-08-16T10:45:25.488Z,2.30
2022-08-16T10:48:31.409Z,1.98
2022-08-16T10:52:02.521Z,2.15
2022-08-16T10:58:34.525Z,2.17
2022-08-16T11:01:43.706Z,2.30
2022-08-16T11:05:05.887Z,2.25
2022-08-16T11:08:11.990Z,2.33
2022-08-16T11:11:20.652Z,2.03
2022-08-16T11:14:25.423Z,2.30
2022-08-16T11:17:32.595Z,2.20
2022-08-16T11:20:41.367Z,2.40
2022-08-16T11:23:56.884Z,2.20
2022-08-16T11:27:20.557Z,2.20
2022-08-16T11:30:28.289Z,2.63
2022-08-16T11:33:57.856Z,2.60
2022-08-16T11:37:02.673Z,2.50
2022-08-16T11:40:09.640Z,2.40
2022-08-16T11:43:16.956Z,2.40
2022-08-16T11:46:43.038Z,2.40
2022-08-16T11:49:45.725Z,2.33
2022-08-16T11:52:50.390Z,2.58
2022-08-16T11:55:55.655Z,2.25
2022-08-16T11:58:59.516Z,2.38
2022-08-16T12:02:32.345Z,2.40
2022-08-16T12:05:31.027Z,2.50
2022-08-16T12:08:36.137Z,2.25
2022-08-16T12:11:40.635Z,2.20
2022-08-16T12:14:48.361Z,2.40
2022-08-16T12:17:54.188Z,2.50
2022-08-16T12:20:58.460Z,2.28
2022-08-16T12:24:05.730Z,1.90
2022-08-16T12:27:10.013Z,2.10
2022-08-16T12:30:26.472Z,2.45
2022-08-16T12:33:44.455Z,2.10
2022-08-16T12:39:56.080Z,2.60
2022-08-16T12:43:02.713Z,2.33
2022-08-16T12:46:09.293Z,2.40
2022-08-16T12:49:13.564Z,2.20
2022-08-16T12:52:32.877Z,2.70
2022-08-16T12:55:41.672Z,2.47
2022-08-16T12:58:51.760Z,2.50
2022-08-16T13:01:59.300Z,1.80
2022-08-16T13:05:07.044Z,2.63
2022-08-16T13:08:20.231Z,2.30
2022-08-16T13:11:32.516Z,2.07
2022-08-16T13:14:41.239Z,2.08
2022-08-16T13:17:45.391Z,2.50
2022-08-16T13:20:54.931Z,2.28
2022-08-16T13:24:00.605Z,2.28
2022-08-16T13:27:08.283Z,2.25
2022-08-16T13:30:35.649Z,2.10
2022-08-16T13:33:38.006Z,2.17
2022-08-16T13:36:50.089Z,2.10
2022-08-16T13:39:54.267Z,2.10
2022-08-16T13:42:59.458Z,2.20
2022-08-16T13:46:04.638Z,2.10
2022-08-16T13:49:08.697Z,1.90
2022-08-16T13:52:13.428Z,2.33
2022-08-16T13:55:17.878Z,2.20
2022-08-16T13:58:37.395Z,2.05
2022-08-16T14:01:55.389Z,2.38
2022-08-16T14:05:05.309Z,2.40
2022-08-16T14:08:10.051Z,2.35
2022-08-16T14:11:14.957Z,2.25
2022-08-16T14:14:19.024Z,2.30
2022-08-16T14:17:31.291Z,2.03
2022-08-16T14:20:54.799Z,2.15
2022-08-16T14:23:58.922Z,2.15
2022-08-16T14:27:04.776Z,2.20
2022-08-16T14:30:15.609Z,2.17
2022-08-16T14:33:20.224Z,2.40
2022-08-16T14:36:30.043Z,2.17
2022-08-16T14:39:35.245Z,2.20
2022-08-16T14:42:44.302Z,2.88
2022-08-16T14:45:50.415Z,2.45
2022-08-16T14:48:54.619Z,2.30
2022-08-16T14:52:10.095Z,2.13
2022-08-16T14:55:15.641Z,2.63
2022-08-16T14:58:35.080Z,2.22
2022-08-16T15:01:58.570Z,2.13
2022-08-16T15:05:06.799Z,2.15
2022-08-16T15:08:13.567Z,2.00
2022-08-16T15:11:17.797Z,2.10
2022-08-16T15:14:21.935Z,2.13
2022-08-16T15:17:27.598Z,2.25
2022-08-16T15:20:38.513Z,2.28
2022-08-16T15:23:43.450Z,2.30
2022-08-16T15:26:48.491Z,2.55
2022-08-16T15:29:53.884Z,2.28
2022-08-16T15:33:04.217Z,2.15
2022-08-16T15:36:08.733Z,2.10
2022-08-16T15:39:31.702Z,2.30
2022-08-16T15:42:37.786Z,2.15
2022-08-16T15:46:05.475Z,2.20
2022-08-16T15:49:14.304Z,2.03
2022-08-16T15:52:29.749Z,2.28
2022-08-16T15:55:35.414Z,2.30
2022-08-16T15:58:39.659Z,3.58
2022-08-16T16:01:43.926Z,2.10
2022-08-16T16:04:48.135Z,2.20
2022-08-16T16:07:56.574Z,2.10
2022-08-16T16:11:15.035Z,2.20
2022-08-16T16:14:21.202Z,2.25
2022-08-16T16:17:28.223Z,2.38
2022-08-16T16:20:35.667Z,2.20
2022-08-16T16:23:54.787Z,2.60
2022-08-16T16:27:01.857Z,2.50
2022-08-16T16:30:11.329Z,2.30
2022-08-16T16:33:33.853Z,2.55
2022-08-16T16:36:43.567Z,2.45
2022-08-16T16:39:52.265Z,2.40
2022-08-16T16:42:59.881Z,2.33
2022-08-16T16:46:40.487Z,2.20
2022-08-16T16:49:30.198Z,2.28
2022-08-16T16:52:44.793Z,2.30
2022-08-16T16:55:51.983Z,2.42
2022-08-16T16:58:56.527Z,2.40
2022-08-16T17:02:41.385Z,2.47
2022-08-16T17:05:29.365Z,2.40
2022-08-16T17:08:37.809Z,2.40
2022-08-16T17:11:46.235Z,2.50
2022-08-16T17:14:59.487Z,2.20
2022-08-16T17:19:02.011Z,2.60
2022-08-16T17:21:27.865Z,2.40
2022-08-16T17:24:40.081Z,2.63
2022-08-16T17:27:51.609Z,2.35
2022-08-16T17:30:56.233Z,2.28
2022-08-16T17:34:00.354Z,2.58
2022-08-16T17:37:42.263Z,2.50
2022-08-16T17:40:58.525Z,2.63
2022-08-16T17:44:05.377Z,2.90
2022-08-16T17:47:09.457Z,2.97
2022-08-16T17:50:13.839Z,2.80
2022-08-16T17:53:20.019Z,3.20
2022-08-16T17:56:24.164Z,2.80
2022-08-16T17:59:29.241Z,2.80
2022-08-16T18:02:43.369Z,2.70
2022-08-16T18:05:48.587Z,2.58
2022-08-16T18:09:01.742Z,2.60
2022-08-16T18:12:24.011Z,2.90
2022-08-16T18:15:39.481Z,2.60
2022-08-16T18:18:44.160Z,2.60
2022-08-16T18:22:06.857Z,2.65
2022-08-16T18:25:10.798Z,2.40
2022-08-16T18:28:15.908Z,3.10
2022-08-16T18:31:20.157Z,3.13
2022-08-16T18:34:24.512Z,2.92
2022-08-16T18:37:28.558Z,2.88
2022-08-16T18:40:32.841Z,2.97
2022-08-16T18:44:23.466Z,3.00
2022-08-16T18:47:00.832Z,2.92
2022-08-16T18:50:05.673Z,2.70
2022-08-16T18:53:12.818Z,2.72
2022-08-16T18:56:16.663Z,2.72
2022-08-16T18:59:20.651Z,2.63
2022-08-16T19:02:57.441Z,2.60
2022-08-16T19:05:55.066Z,2.42
2022-08-16T19:08:58.928Z,2.63
2022-08-16T19:12:06.153Z,2.88
2022-08-16T19:15:14.560Z,2.50
2022-08-16T19:18:21.914Z,2.50
2022-08-16T19:21:26.065Z,2.70
2022-08-16T19:24:30.084Z,2.60
2022-08-16T19:27:34.287Z,2.90
2022-08-16T19:30:40.472Z,2.97
2022-08-16T19:33:53.520Z,2.63
2022-08-16T19:36:58.977Z,2.60
2022-08-16T19:40:05.402Z,2.58
2022-08-16T19:43:29.190Z,2.65
2022-08-16T19:46:33.513Z,3.03
2022-08-16T19:49:37.865Z,2.85
2022-08-16T19:52:43.006Z,3.15
2022-08-16T19:55:47.714Z,3.05
2022-08-16T19:59:17.583Z,3.10
2022-08-16T20:02:35.550Z,2.50
2022-08-16T20:05:42.843Z,2.95
2022-08-16T20:08:47.156Z,3.05
2022-08-16T20:11:53.104Z,2.90
2022-08-16T20:14:59.153Z,3.33
2022-08-16T20:18:03.271Z,3.42
2022-08-16T20:21:18.111Z,3.10
2022-08-16T20:24:34.148Z,3.40
2022-08-16T20:27:40.080Z,3.17
2022-08-16T20:30:43.953Z,3.35
2022-08-16T20:33:48.008Z,3.20
2022-08-16T20:36:52.420Z,3.50
2022-08-16T20:40:28.847Z,3.80
2022-08-16T20:43:21.287Z,3.80
2022-08-16T20:46:25.558Z,4.05
2022-08-16T20:49:29.624Z,4.25
2022-08-16T20:52:34.087Z,4.10
2022-08-16T20:55:40.361Z,4.25
2022-08-16T20:58:44.632Z,3.80
2022-08-16T21:01:50.102Z,4.65
2022-08-16T21:04:55.423Z,4.32
2022-08-16T21:07:59.142Z,4.30
2022-08-16T21:11:05.651Z,4.45
2022-08-16T21:14:11.686Z,4.65
2022-08-16T21:17:16.110Z,4.85
2022-08-16T21:20:22.617Z,4.60
2022-08-16T21:23:26.822Z,4.30
2022-08-16T21:26:31.327Z,4.93
2022-08-16T21:29:39.582Z,5.00
2022-08-16T21:32:47.100Z,4.43
2022-08-16T21:35:52.469Z,5.28
2022-08-16T21:38:56.715Z,5.63
2022-08-16T21:42:01.055Z,5.57
2022-08-16T21:45:12.469Z,5.80
2022-08-16T21:48:16.544Z,5.30
2022-08-16T21:51:20.839Z,5.32
2022-08-16T21:54:25.028Z,6.32
2022-08-16T21:57:35.598Z,6.70
2022-08-16T22:00:41.957Z,9.55
2022-08-16T22:03:45.975Z,6.85
2022-08-16T22:06:49.718Z,7.22
2022-08-16T22:09:53.668Z,6.47
2022-08-16T22:13:00.225Z,7.40
2022-08-16T22:16:04.591Z,5.97
2022-08-16T22:19:09.236Z,5.30
2022-08-16T22:22:13.902Z,5.50
2022-08-16T22:25:18.324Z,5.20
2022-08-16T22:28:23.022Z,5.40
2022-08-16T22:31:27.387Z,5.45
2022-08-16T22:34:32.229Z,4.95
2022-08-16T22:37:36.143Z,5.07
2022-08-16T22:40:40.202Z,5.32
2022-08-16T22:43:44.828Z,5.05
2022-08-16T22:46:49.411Z,5.15
2022-08-16T22:49:53.074Z,5.10
2022-08-16T22:52:58.405Z,5.05
2022-08-16T22:56:03.233Z,4.70
2022-08-16T22:59:07.591Z,4.90
2022-08-16T23:02:12.039Z,4.13
2022-08-16T23:05:17.731Z,4.68
2022-08-16T23:08:38.484Z,4.63
2022-08-16T23:11:44.802Z,5.05
2022-08-16T23:14:48.579Z,4.90
2022-08-16T23:17:58.399Z,5.30
2022-08-16T23:21:02.699Z,4.88
2022-08-16T23:24:08.666Z,5.25
2022-08-16T23:27:12.758Z,5.35
2022-08-16T23:30:19.366Z,4.72
2022-08-16T23:33:25.203Z,4.55
2022-08-16T23:36:28.894Z,4.90
2022-08-16T23:39:32.760Z,5.22
2022-08-16T23:43:43.271Z,4.68
2022-08-16T23:52:54.025Z,5.25
2022-08-16T23:55:52.122Z,4.30
2022-08-16T23:59:02.910Z,4.90
